Time;durP1;ratioP1;P1;durP2;ratioP2;P2;SDS_P1;SDS_P2;PMS_P1;PMS_P2;Temp;Humidity;BMP_temperature;BMP_pressure;BME280_temperature;BME280_humidity;BME280_pressure;Samples;Min_cycle;Max_cycle;Signal;HPM_P1;HPM_P2
2022/11/10 00:00:14;;;;;;;25.47;5.90;;;;;;;;;;5076701;28;20196;-85
2022/11/10 00:02:42;;;;;;;23.77;6.93;;;;;;;;;;5076221;28;20224;-79
2022/11/10 00:05:09;;;;;;;16.07;5.07;;;;;;;;;;5080122;28;20177;-85
2022/11/10 00:07:35;;;;;;;18.40;5.60;;;;;;;;;;5098544;28;20178;-85
2022/11/10 00:10:01;;;;;;;19.33;5.13;;;;;;;;;;5080359;28;20174;-85
2022/11/10 00:12:27;;;;;;;20.17;5.23;;;;;;;;;;5098404;28;20180;-85
2022/11/10 00:17:38;;;;;;;23.60;6.07;;;;;;;;;;5097590;28;20554;-79
2022/11/10 00:20:04;;;;;;;16.57;5.00;;;;;;;;;;5098355;28;20175;-79
2022/11/10 00:22:31;;;;;;;20.87;5.33;;;;;;;;;;5080111;28;20171;-79
2022/11/10 00:24:57;;;;;;;19.07;5.77;;;;;;;;;;5079753;28;20950;-79
2022/11/10 00:27:23;;;;;;;23.23;6.43;;;;;;;;;;5079533;28;20409;-79
2022/11/10 00:29:49;;;;;;;21.30;5.87;;;;;;;;;;5080208;28;20190;-79
2022/11/10 00:32:15;;;;;;;25.30;5.97;;;;;;;;;;5079782;28;20254;-79
2022/11/10 00:34:41;;;;;;;21.97;5.73;;;;;;;;;;5079664;28;20198;-79
2022/11/10 00:37:07;;;;;;;28.40;7.53;;;;;;;;;;5063013;28;20446;-79
2022/11/10 00:39:33;;;;;;;22.27;6.80;;;;;;;;;;5074475;28;20186;-79
2022/11/10 00:41:59;;;;;;;23.90;5.80;;;;;;;;;;5057955;28;20183;-79
2022/11/10 00:44:25;;;;;;;28.20;6.40;;;;;;;;;;5063359;28;20187;-79
2022/11/10 00:46:51;;;;;;;27.02;7.15;;;;;;;;;;5059064;28;20418;-79
2022/11/10 00:49:17;;;;;;;22.47;5.87;;;;;;;;;;5095029;28;20187;-79
2022/11/10 00:51:43;;;;;;;18.87;5.40;;;;;;;;;;5097838;28;20229;-85
2022/11/10 00:54:09;;;;;;;19.30;5.13;;;;;;;;;;5079987;28;20297;-86
2022/11/10 00:56:35;;;;;;;23.67;5.37;;;;;;;;;;5059422;28;20189;-85
2022/11/10 00:59:01;;;;;;;19.97;5.57;;;;;;;;;;5059726;28;20179;-85
2022/11/10 01:01:27;;;;;;;25.38;6.50;;;;;;;;;;5058629;28;20403;-85
2022/11/10 01:03:53;;;;;;;24.58;6.20;;;;;;;;;;5090428;28;20412;-85
2022/11/10 01:06:20;;;;;;;21.97;5.40;;;;;;;;;;5079309;28;20183;-86
2022/11/10 01:08:46;;;;;;;21.23;5.77;;;;;;;;;;5097215;28;20175;-79
2022/11/10 01:11:17;;;;;;;26.48;6.97;;;;;;;;;;5095668;28;20408;-79
2022/11/10 01:13:44;;;;;;;20.60;6.68;;;;;;;;;;5096195;28;21807;-79
2022/11/10 01:16:12;;;;;;;19.60;5.23;;;;;;;;;;5095657;28;20174;-80
2022/11/10 01:18:38;;;;;;;19.00;5.03;;;;;;;;;;5097244;28;20167;-80
2022/11/10 01:21:04;;;;;;;23.77;6.93;;;;;;;;;;5107546;22;20460;-81
2022/11/10 01:23:31;;;;;;;20.97;6.10;;;;;;;;;;5060964;28;20198;-80
2022/11/10 01:26:01;;;;;;;22.20;6.40;;;;;;;;;;5078646;28;20182;-80
2022/11/10 01:28:27;;;;;;;19.80;5.73;;;;;;;;;;5078603;28;20198;-80
2022/11/10 01:30:58;;;;;;;21.97;6.20;;;;;;;;;;5058721;28;20191;-80
2022/11/10 01:33:24;;;;;;;21.87;5.53;;;;;;;;;;5078192;28;20210;-80
2022/11/10 01:35:50;;;;;;;29.20;6.50;;;;;;;;;;5062077;28;20446;-80
2022/11/10 01:38:16;;;;;;;27.57;6.47;;;;;;;;;;5075764;28;20179;-80
2022/11/10 01:40:42;;;;;;;19.07;5.93;;;;;;;;;;5050912;28;20266;-80
2022/11/10 01:43:09;;;;;;;21.63;5.43;;;;;;;;;;5071662;28;20174;-80
2022/11/10 01:45:44;;;;;;;15.77;5.10;;;;;;;;;;5069643;28;20193;-80
2022/11/10 01:48:14;;;;;;;19.93;6.13;;;;;;;;;;5068892;28;20460;-80
2022/11/10 01:50:41;;;;;;;23.30;5.83;;;;;;;;;;5069265;28;20191;-80
2022/11/10 01:53:08;;;;;;;19.83;5.03;;;;;;;;;;5052752;28;20211;-80
2022/11/10 01:55:36;;;;;;;22.77;5.63;;;;;;;;;;5066924;28;20168;-80
2022/11/10 01:58:02;;;;;;;23.83;5.93;;;;;;;;;;5071072;28;20187;-81
2022/11/10 02:00:28;;;;;;;17.83;5.57;;;;;;;;;;5049868;28;20226;-80
2022/11/10 02:03:08;;;;;;;23.52;6.43;;;;;;;;;;5054782;28;20423;-80
2022/11/10 02:05:34;;;;;;;22.00;6.40;;;;;;;;;;5073462;28;20446;-80
2022/11/10 02:08:00;;;;;;;24.23;6.88;;;;;;;;;;5074506;28;20413;-80
2022/11/10 02:10:26;;;;;;;24.92;6.88;;;;;;;;;;5057313;28;20410;-80
2022/11/10 02:12:52;;;;;;;24.45;6.50;;;;;;;;;;5052329;28;20509;-81
2022/11/10 02:15:18;;;;;;;26.23;6.30;;;;;;;;;;5061379;28;20278;-81
2022/11/10 02:17:48;;;;;;;27.02;7.10;;;;;;;;;;5076979;28;20413;-81
2022/11/10 02:20:16;;;;;;;21.23;6.13;;;;;;;;;;5058800;28;20223;-81
2022/11/10 02:22:42;;;;;;;27.20;6.80;;;;;;;;;;5077527;28;20216;-80
2022/11/10 02:25:08;;;;;;;25.43;6.23;;;;;;;;;;5061519;28;20170;-81
2022/11/10 02:27:34;;;;;;;26.73;6.50;;;;;;;;;;5059889;28;20189;-81
2022/11/10 02:30:00;;;;;;;21.00;6.10;;;;;;;;;;5060072;28;20183;-81
2022/11/10 02:32:27;;;;;;;26.03;6.90;;;;;;;;;;5073210;28;20176;-79
2022/11/10 02:34:53;;;;;;;23.77;6.32;;;;;;;;;;5057454;28;20434;-78
2022/11/10 02:37:19;;;;;;;24.60;6.82;;;;;;;;;;5058753;28;20428;-79
2022/11/10 02:39:45;;;;;;;26.47;7.90;;;;;;;;;;5055903;28;20422;-80
2022/11/10 02:42:11;;;;;;;24.33;6.57;;;;;;;;;;5058687;28;20269;-80
2022/11/10 02:44:37;;;;;;;21.10;6.17;;;;;;;;;;5060674;28;20187;-80
2022/11/10 02:47:03;;;;;;;20.47;5.57;;;;;;;;;;5060815;28;20239;-80
2022/11/10 02:49:29;;;;;;;23.80;6.13;;;;;;;;;;5054311;28;20258;-80
2022/11/10 02:51:55;;;;;;;22.43;5.80;;;;;;;;;;5057411;28;20267;-80
2022/11/10 02:54:21;;;;;;;20.97;5.00;;;;;;;;;;5058769;28;20305;-80
2022/11/10 02:56:47;;;;;;;22.70;5.83;;;;;;;;;;5060933;28;20190;-80
2022/11/10 02:59:13;;;;;;;25.30;6.20;;;;;;;;;;5060330;28;20182;-81
2022/11/10 03:01:39;;;;;;;21.03;6.33;;;;;;;;;;5077486;28;20196;-80
2022/11/10 03:04:06;;;;;;;23.63;6.23;;;;;;;;;;5056800;28;20187;-80
2022/11/10 03:06:32;;;;;;;24.33;5.80;;;;;;;;;;5076297;28;20290;-80
2022/11/10 03:08:58;;;;;;;19.97;6.40;;;;;;;;;;5056639;28;20215;-81
2022/11/10 03:11:24;;;;;;;20.73;6.30;;;;;;;;;;5056851;28;20176;-81
2022/11/10 03:13:50;;;;;;;25.77;6.30;;;;;;;;;;5068126;28;20213;-81
2022/11/10 03:16:16;;;;;;;18.67;5.97;;;;;;;;;;5076711;28;20175;-81
2022/11/10 03:18:42;;;;;;;25.90;6.07;;;;;;;;;;5066603;28;20227;-80
2022/11/10 03:21:08;;;;;;;19.67;5.40;;;;;;;;;;5076367;28;20225;-80
2022/11/10 03:23:35;;;;;;;22.47;5.67;;;;;;;;;;5066509;28;20192;-80
2022/11/10 03:26:04;;;;;;;22.60;6.10;;;;;;;;;;5089171;28;20308;-80
2022/11/10 03:28:30;;;;;;;28.20;5.70;;;;;;;;;;5075928;28;20186;-81
2022/11/10 03:30:56;;;;;;;23.03;5.50;;;;;;;;;;5043819;28;20191;-80
2022/11/10 03:33:22;;;;;;;23.60;5.70;;;;;;;;;;5061760;28;20214;-80
2022/11/10 03:35:48;;;;;;;23.43;5.87;;;;;;;;;;5055843;28;20184;-81
2022/11/10 03:38:14;;;;;;;22.87;5.60;;;;;;;;;;5066253;28;20251;-78
2022/11/10 03:40:40;;;;;;;19.70;5.37;;;;;;;;;;5060111;28;20246;-78
2022/11/10 03:43:06;;;;;;;21.50;5.73;;;;;;;;;;5058212;28;20187;-78
2022/11/10 03:45:32;;;;;;;22.73;5.97;;;;;;;;;;5059659;28;20182;-79
2022/11/10 03:47:58;;;;;;;21.30;5.93;;;;;;;;;;5055376;28;20245;-79
2022/11/10 03:50:24;;;;;;;29.30;6.57;;;;;;;;;;5059390;28;20190;-79
2022/11/10 03:52:50;;;;;;;23.33;6.10;;;;;;;;;;5059977;28;20182;-79
2022/11/10 03:55:18;;;;;;;20.93;6.30;;;;;;;;;;5055005;28;20179;-81
2022/11/10 03:57:44;;;;;;;23.97;6.27;;;;;;;;;;5056130;28;20214;-81
2022/11/10 04:00:11;;;;;;;19.97;6.07;;;;;;;;;;5056201;28;20179;-80
2022/11/10 04:02:37;;;;;;;25.73;6.47;;;;;;;;;;5050489;28;20187;-81
2022/11/10 04:10:40;;;;;;;24.23;6.20;;;;;;;;;;5074178;28;20189;-80
2022/11/10 04:15:51;;;;;;;27.30;6.50;;;;;;;;;;5070402;28;20200;-80
2022/11/10 04:18:20;;;;;;;24.17;7.33;;;;;;;;;;5076476;28;20178;-80
2022/11/10 04:20:49;;;;;;;27.80;6.63;;;;;;;;;;5066795;28;20256;-80
2022/11/10 04:23:29;;;;;;;24.83;6.77;;;;;;;;;;5075837;28;20198;-80
2022/11/10 04:28:50;;;;;;;32.10;7.07;;;;;;;;;;5093687;28;20198;-78
2022/11/10 04:31:16;;;;;;;32.70;7.10;;;;;;;;;;5093482;28;20179;-79
2022/11/10 04:33:43;;;;;;;31.33;7.03;;;;;;;;;;5093508;28;20210;-79
2022/11/10 04:36:10;;;;;;;25.37;6.50;;;;;;;;;;5059112;28;20228;-79
2022/11/10 04:38:36;;;;;;;26.50;7.03;;;;;;;;;;5059111;28;20178;-78
2022/11/10 04:41:02;;;;;;;26.97;6.40;;;;;;;;;;5049692;28;20183;-79
2022/11/10 04:43:29;;;;;;;29.37;6.90;;;;;;;;;;5059075;28;20210;-79
2022/11/10 04:45:55;;;;;;;26.13;6.70;;;;;;;;;;5055898;28;20199;-80
2022/11/10 04:48:21;;;;;;;24.03;6.73;;;;;;;;;;5060432;28;20186;-81
2022/11/10 04:50:47;;;;;;;29.83;7.10;;;;;;;;;;5097474;28;20307;-80
2022/11/10 04:53:13;;;;;;;30.30;7.27;;;;;;;;;;5079118;28;20212;-80
2022/11/10 04:55:40;;;;;;;30.87;6.83;;;;;;;;;;5059241;28;20269;-80
2022/11/10 04:58:06;;;;;;;30.73;7.07;;;;;;;;;;5077594;28;20190;-80
2022/11/10 05:00:32;;;;;;;26.53;7.33;;;;;;;;;;5062586;28;20179;-80
2022/11/10 05:02:59;;;;;;;31.27;6.50;;;;;;;;;;5097294;28;20174;-80
2022/11/10 05:05:25;;;;;;;21.37;5.33;;;;;;;;;;5058674;28;20184;-80
2022/11/10 05:07:51;;;;;;;24.27;5.73;;;;;;;;;;5069030;28;20182;-80
2022/11/10 05:10:17;;;;;;;19.97;5.40;;;;;;;;;;5062983;28;20179;-80
2022/11/10 05:12:43;;;;;;;17.40;5.20;;;;;;;;;;5062859;28;20189;-80
2022/11/10 05:15:09;;;;;;;20.87;5.60;;;;;;;;;;5062182;28;20183;-80
2022/11/10 05:17:35;;;;;;;19.63;4.80;;;;;;;;;;5078674;28;20186;-78
2022/11/10 05:20:02;;;;;;;26.37;5.10;;;;;;;;;;5058447;28;20233;-79
2022/11/10 05:22:28;;;;;;;18.57;4.90;;;;;;;;;;5063529;28;20178;-78
2022/11/10 05:24:54;;;;;;;18.53;4.77;;;;;;;;;;5077962;28;20198;-78
2022/11/10 05:27:20;;;;;;;21.23;4.93;;;;;;;;;;5095965;28;20268;-78
2022/11/10 05:29:46;;;;;;;23.83;5.60;;;;;;;;;;5062489;28;20189;-79
2022/11/10 05:32:12;;;;;;;17.63;5.07;;;;;;;;;;5053788;28;20198;-78
2022/11/10 05:34:38;;;;;;;21.80;5.10;;;;;;;;;;5069450;28;20202;-80
2022/11/10 05:37:04;;;;;;;28.92;6.47;;;;;;;;;;5056902;28;20411;-80
2022/11/10 05:39:30;;;;;;;27.80;5.93;;;;;;;;;;5087423;28;20175;-80
2022/11/10 05:41:56;;;;;;;30.20;5.40;;;;;;;;;;5068870;28;20220;-80
2022/11/10 05:44:22;;;;;;;22.27;5.20;;;;;;;;;;5057859;28;20207;-80
2022/11/10 05:46:48;;;;;;;24.83;5.40;;;;;;;;;;5051372;28;20179;-80
2022/11/10 05:49:14;;;;;;;26.95;6.20;;;;;;;;;;5055250;28;20476;-79
2022/11/10 05:51:40;;;;;;;20.67;5.63;;;;;;;;;;5052037;28;20175;-80
2022/11/10 05:54:07;;;;;;;20.23;5.10;;;;;;;;;;5054854;28;20251;-79
2022/11/10 05:56:33;;;;;;;29.83;6.20;;;;;;;;;;5060180;28;20175;-78
2022/11/10 05:58:59;;;;;;;19.53;5.20;;;;;;;;;;5067975;28;20186;-79
2022/11/10 06:01:25;;;;;;;20.17;4.73;;;;;;;;;;5050459;28;20174;-79
2022/11/10 06:03:51;;;;;;;21.20;5.73;;;;;;;;;;5069692;28;20190;-79
2022/11/10 06:06:17;;;;;;;24.20;5.47;;;;;;;;;;5066239;28;20179;-79
2022/11/10 06:08:44;;;;;;;23.77;5.57;;;;;;;;;;5050789;28;20182;-79
2022/11/10 06:11:10;;;;;;;22.67;5.07;;;;;;;;;;5067656;28;20187;-79
2022/11/10 06:13:35;;;;;;;25.90;5.70;;;;;;;;;;5066042;28;20207;-79
2022/11/10 06:16:02;;;;;;;19.57;5.47;;;;;;;;;;5065424;28;20191;-79
2022/11/10 06:18:28;;;;;;;19.27;5.60;;;;;;;;;;5069913;28;20194;-78
2022/11/10 06:20:54;;;;;;;26.77;5.57;;;;;;;;;;5067447;28;20223;-79
2022/11/10 06:23:20;;;;;;;22.13;5.67;;;;;;;;;;5068968;28;20188;-79
2022/11/10 06:25:46;;;;;;;22.07;4.60;;;;;;;;;;5050562;28;20182;-78
2022/11/10 06:28:13;;;;;;;19.57;5.30;;;;;;;;;;5068236;28;20187;-77
2022/11/10 06:30:40;;;;;;;18.47;4.63;;;;;;;;;;5050883;28;20187;-78
2022/11/10 06:33:06;;;;;;;21.07;5.57;;;;;;;;;;5040996;28;20207;-78
2022/11/10 06:35:32;;;;;;;18.80;5.60;;;;;;;;;;5075138;28;20167;-78
2022/11/10 06:37:59;;;;;;;22.17;5.43;;;;;;;;;;5075205;28;20176;-77
2022/11/10 06:40:25;;;;;;;22.57;4.87;;;;;;;;;;5057505;28;20175;-80
2022/11/10 06:42:52;;;;;;;22.77;5.17;;;;;;;;;;5060348;28;20182;-81
2022/11/10 06:45:17;;;;;;;26.67;5.47;;;;;;;;;;5045766;28;20236;-81
2022/11/10 06:47:44;;;;;;;25.33;4.93;;;;;;;;;;5072363;28;20210;-81
2022/11/10 06:50:10;;;;;;;19.07;4.83;;;;;;;;;;5095005;28;20210;-79
2022/11/10 06:52:36;;;;;;;22.90;5.20;;;;;;;;;;5073955;28;20263;-79
2022/11/10 06:55:02;;;;;;;28.63;5.10;;;;;;;;;;5057178;28;20215;-79
2022/11/10 06:57:28;;;;;;;22.83;5.30;;;;;;;;;;5057129;28;20183;-80
2022/11/10 06:59:54;;;;;;;21.23;4.70;;;;;;;;;;5040838;28;20191;-80
2022/11/10 07:02:20;;;;;;;25.13;5.17;;;;;;;;;;5040444;28;20183;-80
2022/11/10 07:04:49;;;;;;;17.70;4.83;;;;;;;;;;5040636;28;20210;-80
2022/11/10 07:07:15;;;;;;;22.50;5.50;;;;;;;;;;5041005;28;20187;-80
2022/11/10 07:09:41;;;;;;;21.13;5.17;;;;;;;;;;5049770;28;20195;-80
2022/11/10 07:12:07;;;;;;;21.20;4.97;;;;;;;;;;5073495;28;20187;-80
2022/11/10 07:14:33;;;;;;;20.97;5.50;;;;;;;;;;5072982;28;20297;-81
2022/11/10 07:16:59;;;;;;;20.47;5.63;;;;;;;;;;5056956;28;20172;-81
2022/11/10 07:19:25;;;;;;;21.37;5.10;;;;;;;;;;5073653;28;20183;-81
2022/11/10 07:21:51;;;;;;;21.53;5.60;;;;;;;;;;5056375;28;20250;-81
2022/11/10 07:24:17;;;;;;;20.00;5.00;;;;;;;;;;5056895;28;20183;-81
2022/11/10 07:26:43;;;;;;;23.17;5.80;;;;;;;;;;5073272;28;20191;-81
2022/11/10 07:29:09;;;;;;;22.07;5.63;;;;;;;;;;5073850;28;20253;-81
2022/11/10 07:31:35;;;;;;;18.10;4.93;;;;;;;;;;5073517;28;20246;-81
2022/11/10 07:34:01;;;;;;;22.67;5.43;;;;;;;;;;5056463;28;20214;-81
2022/11/10 07:36:28;;;;;;;18.83;5.10;;;;;;;;;;5073402;28;20205;-81
2022/11/10 07:38:54;;;;;;;23.47;5.33;;;;;;;;;;5070948;28;20210;-81
2022/11/10 07:41:20;;;;;;;22.45;5.80;;;;;;;;;;5059575;28;20413;-81
2022/11/10 07:43:46;;;;;;;21.40;5.23;;;;;;;;;;5059838;28;20185;-81
2022/11/10 07:46:12;;;;;;;17.40;5.10;;;;;;;;;;5076602;28;20183;-80
2022/11/10 07:48:38;;;;;;;19.60;4.90;;;;;;;;;;5059574;28;20186;-79
2022/11/10 07:51:04;;;;;;;15.10;5.17;;;;;;;;;;5059720;28;20182;-79
2022/11/10 07:53:30;;;;;;;15.53;4.80;;;;;;;;;;5059690;28;20202;-79
2022/11/10 07:55:57;;;;;;;19.00;5.13;;;;;;;;;;5075410;28;20189;-79
2022/11/10 07:58:23;;;;;;;15.43;4.90;;;;;;;;;;5056169;28;20187;-79
2022/11/10 08:00:49;;;;;;;19.03;4.90;;;;;;;;;;5039841;28;20183;-79
2022/11/10 08:03:19;;;;;;;17.40;4.50;;;;;;;;;;5056625;28;20190;-79
2022/11/10 08:05:45;;;;;;;14.80;5.00;;;;;;;;;;5056350;28;20190;-81
2022/11/10 08:08:12;;;;;;;19.63;4.93;;;;;;;;;;5039752;28;20187;-81
2022/11/10 08:10:38;;;;;;;21.77;5.00;;;;;;;;;;5039963;28;20183;-81
2022/11/10 08:13:05;;;;;;;16.90;4.70;;;;;;;;;;5073655;28;20176;-81
2022/11/10 08:15:33;;;;;;;17.07;4.60;;;;;;;;;;5055835;28;20175;-81
2022/11/10 08:18:03;;;;;;;18.17;5.03;;;;;;;;;;5055997;28;20210;-81
2022/11/10 08:20:29;;;;;;;17.10;4.33;;;;;;;;;;5055989;28;20179;-81
2022/11/10 08:22:57;;;;;;;17.67;4.60;;;;;;;;;;5055978;28;20219;-79
2022/11/10 08:25:23;;;;;;;16.87;4.43;;;;;;;;;;5059529;28;20202;-79
2022/11/10 08:27:55;;;;;;;14.70;4.13;;;;;;;;;;5043380;28;20178;-79
2022/11/10 08:30:21;;;;;;;17.33;4.37;;;;;;;;;;5059910;28;20187;-79
2022/11/10 08:32:47;;;;;;;16.87;4.17;;;;;;;;;;5043408;28;20175;-81
2022/11/10 08:35:13;;;;;;;16.87;4.20;;;;;;;;;;5043338;28;20278;-81
2022/11/10 08:37:39;;;;;;;18.17;4.70;;;;;;;;;;5060185;28;20183;-79
2022/11/10 08:40:06;;;;;;;16.60;4.27;;;;;;;;;;5059580;28;20185;-80
2022/11/10 08:42:32;;;;;;;20.30;4.97;;;;;;;;;;5077231;28;20179;-79
2022/11/10 08:44:58;;;;;;;14.10;4.00;;;;;;;;;;5059919;28;20191;-80
2022/11/10 08:47:24;;;;;;;15.63;4.20;;;;;;;;;;5042923;28;20210;-79
2022/11/10 08:49:50;;;;;;;18.10;4.07;;;;;;;;;;5042916;28;20195;-79
2022/11/10 08:52:16;;;;;;;12.87;3.97;;;;;;;;;;5059369;28;20226;-79
2022/11/10 08:54:42;;;;;;;14.13;4.10;;;;;;;;;;5059322;28;20218;-80
2022/11/10 08:57:08;;;;;;;16.83;4.30;;;;;;;;;;5059404;28;20172;-82
2022/11/10 08:59:34;;;;;;;15.27;4.10;;;;;;;;;;5042796;28;20260;-82
2022/11/10 09:02:00;;;;;;;13.30;4.40;;;;;;;;;;5059214;28;20175;-82
2022/11/10 09:04:26;;;;;;;13.52;4.35;;;;;;;;;;5041583;28;20457;-82
2022/11/10 09:06:55;;;;;;;14.95;4.32;;;;;;;;;;5041291;28;20438;-82
2022/11/10 09:09:22;;;;;;;15.88;4.60;;;;;;;;;;5059175;28;20399;-82
2022/11/10 09:11:48;;;;;;;15.63;4.45;;;;;;;;;;5058705;28;20406;-80
2022/11/10 09:14:14;;;;;;;13.20;4.18;;;;;;;;;;5058522;28;20456;-80
2022/11/10 09:16:40;;;;;;;16.85;4.57;;;;;;;;;;5058469;28;20405;-80
2022/11/10 09:19:06;;;;;;;14.65;4.50;;;;;;;;;;5041467;28;20456;-80
2022/11/10 09:21:32;;;;;;;15.02;4.60;;;;;;;;;;5075262;28;20462;-80
2022/11/10 09:23:58;;;;;;;13.85;4.43;;;;;;;;;;5057922;28;20418;-80
2022/11/10 09:26:24;;;;;;;12.00;4.28;;;;;;;;;;5057880;28;20409;-80
2022/11/10 09:28:50;;;;;;;14.07;4.32;;;;;;;;;;5041479;28;20439;-81
2022/11/10 09:31:17;;;;;;;14.18;4.20;;;;;;;;;;5057823;28;20406;-81
2022/11/10 09:33:43;;;;;;;12.93;4.37;;;;;;;;;;5042164;28;20265;-82
2022/11/10 09:36:09;;;;;;;15.70;4.00;;;;;;;;;;5040374;28;20414;-82
2022/11/10 09:38:35;;;;;;;11.45;3.90;;;;;;;;;;5058183;28;20398;-81
2022/11/10 09:41:02;;;;;;;12.10;4.40;;;;;;;;;;5040752;28;20434;-80
2022/11/10 09:43:31;;;;;;;14.88;4.45;;;;;;;;;;5057297;28;20432;-80
2022/11/10 09:45:59;;;;;;;15.33;3.97;;;;;;;;;;5058526;28;20215;-80
2022/11/10 09:48:27;;;;;;;12.77;4.22;;;;;;;;;;5057501;28;20495;-80
2022/11/10 09:50:59;;;;;;;14.40;4.03;;;;;;;;;;5057704;28;20478;-80
2022/11/10 09:53:54;;;;;;;11.47;3.57;;;;;;;;;;5058245;28;20203;-80
2022/11/10 09:56:23;;;;;;;12.00;3.90;;;;;;;;;;5037079;28;20209;-81
2022/11/10 09:58:49;;;;;;;11.10;3.80;;;;;;;;;;5058621;28;20480;-80
2022/11/10 10:01:15;;;;;;;14.75;4.38;;;;;;;;;;5057848;28;20438;-80
2022/11/10 10:03:46;;;;;;;15.00;4.63;;;;;;;;;;5057871;28;20442;-80
2022/11/10 10:06:13;;;;;;;12.90;4.30;;;;;;;;;;5058189;28;20179;-80
2022/11/10 10:08:51;;;;;;;16.03;4.30;;;;;;;;;;5058078;28;20176;-80
2022/11/10 10:11:46;;;;;;;13.20;3.83;;;;;;;;;;5057980;28;20284;-80
2022/11/10 10:14:12;;;;;;;11.50;3.50;;;;;;;;;;5045342;28;20215;-80
2022/11/10 10:16:54;;;;;;;11.37;3.50;;;;;;;;;;5058415;28;20258;-80
2022/11/10 10:19:20;;;;;;;12.43;3.57;;;;;;;;;;5057451;28;20179;-79
2022/11/10 10:21:49;;;;;;;14.13;4.07;;;;;;;;;;5057414;28;20229;-80
2022/11/10 10:24:17;;;;;;;12.17;3.63;;;;;;;;;;5057955;28;20172;-80
2022/11/10 10:26:46;;;;;;;12.10;3.57;;;;;;;;;;5057683;28;20195;-80
2022/11/10 10:29:21;;;;;;;13.33;3.60;;;;;;;;;;5057638;28;20258;-82
2022/11/10 10:31:48;;;;;;;12.73;3.57;;;;;;;;;;5058216;28;20221;-82
2022/11/10 10:34:19;;;;;;;12.30;3.90;;;;;;;;;;5041189;28;20238;-80
2022/11/10 10:36:46;;;;;;;12.63;3.63;;;;;;;;;;5057429;28;20171;-79
2022/11/10 10:39:17;;;;;;;9.27;3.63;;;;;;;;;;5057144;28;20179;-79
2022/11/10 10:41:46;;;;;;;15.07;4.07;;;;;;;;;;5074890;28;20201;-80
2022/11/10 10:44:16;;;;;;;13.43;3.83;;;;;;;;;;5057077;28;20179;-80
2022/11/10 10:46:44;;;;;;;11.13;3.47;;;;;;;;;;5056716;28;20183;-80
2022/11/10 10:49:20;;;;;;;10.97;3.67;;;;;;;;;;5074885;28;20187;-80
2022/11/10 10:51:47;;;;;;;11.47;3.43;;;;;;;;;;5056952;28;20175;-79
2022/11/10 10:54:26;;;;;;;13.00;3.73;;;;;;;;;;5057059;28;20238;-79
2022/11/10 10:57:02;;;;;;;11.63;4.00;;;;;;;;;;5074665;28;20174;-80
2022/11/10 10:59:28;;;;;;;14.90;3.90;;;;;;;;;;5056794;28;20174;-80
2022/11/10 11:01:55;;;;;;;10.17;3.63;;;;;;;;;;5040458;28;20190;-79
2022/11/10 11:04:31;;;;;;;12.30;3.53;;;;;;;;;;5056821;28;20176;-79
2022/11/10 11:07:05;;;;;;;14.13;3.67;;;;;;;;;;5056712;28;20174;-79
2022/11/10 11:09:42;;;;;;;15.07;3.90;;;;;;;;;;5061192;28;20234;-81
2022/11/10 11:12:11;;;;;;;16.87;4.10;;;;;;;;;;5076554;28;20185;-81
2022/11/10 11:14:37;;;;;;;17.80;4.23;;;;;;;;;;5076347;28;20208;-80
2022/11/10 11:17:22;;;;;;;16.13;4.00;;;;;;;;;;5059969;28;20213;-80
2022/11/10 11:19:53;;;;;;;14.40;3.83;;;;;;;;;;5059921;28;20178;-80
2022/11/10 11:22:19;;;;;;;14.53;4.40;;;;;;;;;;5077210;28;20219;-80
2022/11/10 11:24:45;;;;;;;14.67;3.90;;;;;;;;;;5076539;28;20281;-80
2022/11/10 11:27:11;;;;;;;13.13;3.80;;;;;;;;;;5076263;28;20189;-80
2022/11/10 11:29:53;;;;;;;15.80;4.10;;;;;;;;;;5076409;28;20178;-80
2022/11/10 11:32:38;;;;;;;14.00;3.60;;;;;;;;;;5076365;28;20201;-80
2022/11/10 11:35:09;;;;;;;12.13;3.70;;;;;;;;;;5094200;28;20236;-81
2022/11/10 11:37:45;;;;;;;15.50;3.67;;;;;;;;;;5076360;28;20253;-82
2022/11/10 11:40:11;;;;;;;15.83;3.97;;;;;;;;;;5076326;28;20177;-82
2022/11/10 11:42:40;;;;;;;17.63;3.53;;;;;;;;;;5076303;28;20171;-82
2022/11/10 11:45:15;;;;;;;10.30;3.30;;;;;;;;;;5076146;28;20261;-82
2022/11/10 11:48:07;;;;;;;15.47;3.77;;;;;;;;;;5076581;28;20205;-81
2022/11/10 11:50:36;;;;;;;12.50;3.40;;;;;;;;;;5039324;28;20194;-81
2022/11/10 11:53:14;;;;;;;14.57;3.80;;;;;;;;;;5093836;28;20413;-81
2022/11/10 11:55:59;;;;;;;12.90;3.87;;;;;;;;;;5076691;28;20228;-81
2022/11/10 11:58:38;;;;;;;13.98;3.85;;;;;;;;;;5075563;28;20393;-81
2022/11/10 12:01:10;;;;;;;16.65;4.20;;;;;;;;;;5076046;28;20405;-81
2022/11/10 12:03:36;;;;;;;10.43;3.50;;;;;;;;;;5076312;28;20175;-81
2022/11/10 12:06:02;;;;;;;14.13;3.60;;;;;;;;;;5076293;28;20181;-81
2022/11/10 12:08:34;;;;;;;12.30;4.30;;;;;;;;;;5076638;28;20170;-81
2022/11/10 12:11:00;;;;;;;15.97;3.80;;;;;;;;;;5076147;28;20212;-81
2022/11/10 12:13:37;;;;;;;13.03;3.77;;;;;;;;;;5076508;28;20308;-81
2022/11/10 12:16:14;;;;;;;11.23;3.60;;;;;;;;;;5076233;28;20269;-81
2022/11/10 12:18:45;;;;;;;10.20;3.30;;;;;;;;;;5094376;28;20236;-81
2022/11/10 12:21:30;;;;;;;13.10;3.33;;;;;;;;;;5094249;28;20171;-81
2022/11/10 12:24:05;;;;;;;15.90;4.10;;;;;;;;;;5075926;28;20316;-81
2022/11/10 12:26:38;;;;;;;11.73;3.90;;;;;;;;;;5094086;28;20180;-81
2022/11/10 12:29:24;;;;;;;14.60;3.50;;;;;;;;;;5076078;28;20217;-80
2022/11/10 12:31:53;;;;;;;10.88;3.60;;;;;;;;;;5093460;28;20431;-82
2022/11/10 12:34:25;;;;;;;14.20;3.30;;;;;;;;;;5076237;28;20202;-81
2022/11/10 12:36:52;;;;;;;8.43;3.17;;;;;;;;;;5076066;28;20207;-82
2022/11/10 12:39:21;;;;;;;10.07;3.30;;;;;;;;;;5076038;28;20167;-80
2022/11/10 12:41:50;;;;;;;14.40;3.40;;;;;;;;;;5075956;28;20316;-80
2022/11/10 12:44:42;;;;;;;11.53;3.43;;;;;;;;;;5075710;28;20194;-80
2022/11/10 12:47:11;;;;;;;17.23;3.43;;;;;;;;;;5055296;28;20195;-80
2022/11/10 12:49:38;;;;;;;16.67;3.13;;;;;;;;;;5075809;28;20183;-80
2022/11/10 12:52:09;;;;;;;11.33;3.30;;;;;;;;;;5075802;28;20228;-80
2022/11/10 12:54:36;;;;;;;10.47;2.90;;;;;;;;;;5075928;28;20202;-80
2022/11/10 12:57:05;;;;;;;11.47;3.10;;;;;;;;;;5059409;28;20190;-80
2022/11/10 12:59:32;;;;;;;10.73;3.03;;;;;;;;;;5076014;28;20171;-80
2022/11/10 13:02:01;;;;;;;13.32;3.55;;;;;;;;;;5075548;28;20479;-80
2022/11/10 13:04:27;;;;;;;12.37;3.20;;;;;;;;;;5075867;28;20232;-80
2022/11/10 13:06:56;;;;;;;12.33;2.97;;;;;;;;;;5058848;28;20248;-81
2022/11/10 13:09:25;;;;;;;12.93;2.80;;;;;;;;;;5093654;28;20166;-81
2022/11/10 13:12:15;;;;;;;13.50;3.17;;;;;;;;;;5077312;28;20187;-81
2022/11/10 13:14:41;;;;;;;9.17;2.80;;;;;;;;;;5071383;28;20214;-82
2022/11/10 13:17:08;;;;;;;13.57;3.03;;;;;;;;;;5079088;28;20181;-81
2022/11/10 13:19:37;;;;;;;12.23;3.00;;;;;;;;;;5137335;22;20234;-87
2022/11/10 13:22:10;;;;;;;13.47;3.40;;;;;;;;;;5077803;28;20186;-79
2022/11/10 13:24:38;;;;;;;12.40;3.03;;;;;;;;;;5078685;28;20323;-79
2022/11/10 13:27:04;;;;;;;10.90;2.97;;;;;;;;;;5096667;28;20202;-87
2022/11/10 13:29:36;;;;;;;12.30;3.27;;;;;;;;;;5095748;28;20218;-88
2022/11/10 13:32:14;;;;;;;11.20;2.80;;;;;;;;;;5095646;28;20186;-88
2022/11/10 13:34:41;;;;;;;10.40;2.57;;;;;;;;;;5096576;28;20213;-88
2022/11/10 13:37:44;;;;;;;15.50;3.00;;;;;;;;;;5062096;28;20181;-88
2022/11/10 13:40:28;;;;;;;10.63;2.57;;;;;;;;;;5017819;28;20240;-79
2022/11/10 13:42:57;;;;;;;10.23;2.70;;;;;;;;;;5074191;28;20186;-79
2022/11/10 13:45:31;;;;;;;11.33;3.10;;;;;;;;;;5096275;28;20262;-79
2022/11/10 13:48:05;;;;;;;11.10;2.80;;;;;;;;;;5095097;28;20223;-79
2022/11/10 13:50:48;;;;;;;12.93;2.53;;;;;;;;;;5094972;28;20182;-79
2022/11/10 13:53:14;;;;;;;8.30;2.60;;;;;;;;;;5095064;28;20273;-79
2022/11/10 13:55:58;;;;;;;10.10;2.57;;;;;;;;;;5095116;28;20266;-79
2022/11/10 13:58:25;;;;;;;10.37;2.73;;;;;;;;;;5109683;28;20174;-79
2022/11/10 14:01:11;;;;;;;11.03;2.60;;;;;;;;;;5098595;28;20173;-79
2022/11/10 14:03:46;;;;;;;9.53;2.60;;;;;;;;;;5098092;28;20177;-79
2022/11/10 14:06:12;;;;;;;11.73;2.70;;;;;;;;;;5098198;28;20177;-79
2022/11/10 14:08:40;;;;;;;11.77;2.80;;;;;;;;;;5098237;28;20182;-79
2022/11/10 14:11:12;;;;;;;8.97;2.80;;;;;;;;;;5116494;28;20170;-82
2022/11/10 14:13:55;;;;;;;8.67;2.77;;;;;;;;;;5097984;28;20208;-82
2022/11/10 14:16:22;;;;;;;10.90;2.70;;;;;;;;;;5097787;28;20208;-82
2022/11/10 14:18:53;;;;;;;13.43;3.30;;;;;;;;;;5115907;28;20178;-82
2022/11/10 14:21:21;;;;;;;11.93;2.97;;;;;;;;;;5115291;28;20221;-82
2022/11/10 14:23:50;;;;;;;10.17;2.40;;;;;;;;;;5097758;28;20174;-82
2022/11/10 14:26:32;;;;;;;11.00;2.70;;;;;;;;;;5097752;28;20178;-82
2022/11/10 14:29:18;;;;;;;14.43;2.80;;;;;;;;;;5098178;28;20178;-88
2022/11/10 14:31:44;;;;;;;15.20;3.10;;;;;;;;;;5103619;28;20194;-87
2022/11/10 14:34:14;;;;;;;12.23;2.50;;;;;;;;;;5077972;28;20263;-87
2022/11/10 14:36:49;;;;;;;14.57;2.87;;;;;;;;;;5077190;28;20191;-87
2022/11/10 14:39:16;;;;;;;10.93;2.77;;;;;;;;;;5095771;28;20178;-87
2022/11/10 14:41:49;;;;;;;9.77;2.70;;;;;;;;;;5061522;28;20178;-87
2022/11/10 14:44:21;;;;;;;10.57;2.70;;;;;;;;;;5078083;28;20200;-87
2022/11/10 14:46:47;;;;;;;10.33;2.87;;;;;;;;;;5092085;28;20186;-87
2022/11/10 14:49:13;;;;;;;10.00;3.03;;;;;;;;;;5057497;28;20214;-88
2022/11/10 14:51:39;;;;;;;12.47;3.20;;;;;;;;;;5057322;28;20179;-87